sensor_id;sensor_type;location;lat;lon;timestamp;P1;durP1;ratioP1;P2;durP2;ratioP2
16262;SDS011;8239;48.594;8.598;2022-08-21T00:01:24;4.20;;;2.90;;
16262;SDS011;8239;48.594;8.598;2022-08-21T00:03:54;4.50;;;3.40;;
16262;SDS011;8239;48.594;8.598;2022-08-21T00:06:22;5.40;;;3.43;;
16262;SDS011;8239;48.594;8.598;2022-08-21T00:08:50;4.63;;;3.03;;
16262;SDS011;8239;48.594;8.598;2022-08-21T00:11:17;4.83;;;3.33;;
16262;SDS011;8239;48.594;8.598;2022-08-21T00:13:45;4.40;;;3.37;;
16262;SDS011;8239;48.594;8.598;2022-08-21T00:16:12;4.57;;;3.07;;
16262;SDS011;8239;48.594;8.598;2022-08-21T00:18:39;6.17;;;3.43;;
16262;SDS011;8239;48.594;8.598;2022-08-21T00:21:07;5.33;;;3.37;;
16262;SDS011;8239;48.594;8.598;2022-08-21T00:23:35;4.50;;;3.17;;
16262;SDS011;8239;48.594;8.598;2022-08-21T00:26:02;5.77;;;3.23;;
16262;SDS011;8239;48.594;8.598;2022-08-21T00:28:30;4.83;;;3.27;;
16262;SDS011;8239;48.594;8.598;2022-08-21T00:30:57;5.17;;;3.17;;
16262;SDS011;8239;48.594;8.598;2022-08-21T00:33:24;4.33;;;3.53;;
16262;SDS011;8239;48.594;8.598;2022-08-21T00:35:52;7.53;;;3.50;;
16262;SDS011;8239;48.594;8.598;2022-08-21T00:38:20;5.53;;;3.50;;
16262;SDS011;8239;48.594;8.598;2022-08-21T00:40:48;3.97;;;3.60;;
16262;SDS011;8239;48.594;8.598;2022-08-21T00:43:18;5.20;;;3.57;;
16262;SDS011;8239;48.594;8.598;2022-08-21T00:45:47;5.83;;;3.60;;
16262;SDS011;8239;48.594;8.598;2022-08-21T00:48:14;6.07;;;3.47;;
16262;SDS011;8239;48.594;8.598;2022-08-21T00:50:43;6.00;;;3.50;;
16262;SDS011;8239;48.594;8.598;2022-08-21T00:53:14;5.40;;;3.80;;
16262;SDS011;8239;48.594;8.598;2022-08-21T00:55:44;6.13;;;3.60;;
16262;SDS011;8239;48.594;8.598;2022-08-21T00:58:12;3.33;;;3.03;;
16262;SDS011;8239;48.594;8.598;2022-08-21T01:00:41;3.83;;;3.40;;
16262;SDS011;8239;48.594;8.598;2022-08-21T01:03:11;5.20;;;3.43;;
16262;SDS011;8239;48.594;8.598;2022-08-21T01:05:40;5.83;;;3.50;;
16262;SDS011;8239;48.594;8.598;2022-08-21T01:08:08;6.57;;;3.50;;
16262;SDS011;8239;48.594;8.598;2022-08-21T01:10:36;3.77;;;3.20;;
16262;SDS011;8239;48.594;8.598;2022-08-21T01:13:06;6.07;;;3.50;;
16262;SDS011;8239;48.594;8.598;2022-08-21T01:15:35;5.67;;;3.40;;
16262;SDS011;8239;48.594;8.598;2022-08-21T01:18:05;3.90;;;3.30;;
16262;SDS011;8239;48.594;8.598;2022-08-21T01:20:34;5.07;;;3.23;;
16262;SDS011;8239;48.594;8.598;2022-08-21T01:23:04;6.10;;;3.33;;
16262;SDS011;8239;48.594;8.598;2022-08-21T01:25:32;5.30;;;3.70;;
16262;SDS011;8239;48.594;8.598;2022-08-21T01:28:01;4.73;;;3.47;;
16262;SDS011;8239;48.594;8.598;2022-08-21T01:30:35;4.83;;;3.40;;
16262;SDS011;8239;48.594;8.598;2022-08-21T01:33:03;5.93;;;3.47;;
16262;SDS011;8239;48.594;8.598;2022-08-21T01:35:30;5.07;;;3.50;;
16262;SDS011;8239;48.594;8.598;2022-08-21T01:37:57;7.43;;;3.80;;
16262;SDS011;8239;48.594;8.598;2022-08-21T01:40:26;5.90;;;3.53;;
16262;SDS011;8239;48.594;8.598;2022-08-21T01:42:53;5.40;;;3.50;;
16262;SDS011;8239;48.594;8.598;2022-08-21T01:45:20;5.33;;;3.40;;
16262;SDS011;8239;48.594;8.598;2022-08-21T01:47:48;5.63;;;3.50;;
16262;SDS011;8239;48.594;8.598;2022-08-21T01:50:16;5.07;;;3.80;;
16262;SDS011;8239;48.594;8.598;2022-08-21T01:52:45;5.27;;;3.73;;
16262;SDS011;8239;48.594;8.598;2022-08-21T01:55:13;5.87;;;3.80;;
16262;SDS011;8239;48.594;8.598;2022-08-21T01:57:43;5.13;;;3.77;;
16262;SDS011;8239;48.594;8.598;2022-08-21T02:00:11;5.30;;;3.80;;
16262;SDS011;8239;48.594;8.598;2022-08-21T02:02:41;4.73;;;3.93;;
16262;SDS011;8239;48.594;8.598;2022-08-21T02:05:09;7.77;;;4.20;;
16262;SDS011;8239;48.594;8.598;2022-08-21T02:07:37;7.20;;;3.97;;
16262;SDS011;8239;48.594;8.598;2022-08-21T02:10:06;5.13;;;4.27;;
16262;SDS011;8239;48.594;8.598;2022-08-21T02:12:35;6.60;;;4.10;;
16262;SDS011;8239;48.594;8.598;2022-08-21T02:15:03;5.60;;;3.63;;
16262;SDS011;8239;48.594;8.598;2022-08-21T02:17:37;10.90;;;4.33;;
16262;SDS011;8239;48.594;8.598;2022-08-21T02:20:06;6.13;;;4.00;;
16262;SDS011;8239;48.594;8.598;2022-08-21T02:22:34;5.80;;;3.90;;
16262;SDS011;8239;48.594;8.598;2022-08-21T02:25:01;6.77;;;4.73;;
16262;SDS011;8239;48.594;8.598;2022-08-21T02:27:28;8.57;;;4.07;;
16262;SDS011;8239;48.594;8.598;2022-08-21T02:29:56;5.93;;;4.10;;
16262;SDS011;8239;48.594;8.598;2022-08-21T02:32:25;8.30;;;4.37;;
16262;SDS011;8239;48.594;8.598;2022-08-21T02:34:52;7.07;;;4.03;;
16262;SDS011;8239;48.594;8.598;2022-08-21T02:37:19;6.20;;;4.53;;
16262;SDS011;8239;48.594;8.598;2022-08-21T02:39:47;6.80;;;3.97;;
16262;SDS011;8239;48.594;8.598;2022-08-21T02:42:14;5.73;;;4.10;;
16262;SDS011;8239;48.594;8.598;2022-08-21T02:44:41;6.07;;;3.97;;
16262;SDS011;8239;48.594;8.598;2022-08-21T02:47:08;4.60;;;3.67;;
16262;SDS011;8239;48.594;8.598;2022-08-21T02:49:37;5.93;;;4.00;;
16262;SDS011;8239;48.594;8.598;2022-08-21T02:52:04;5.20;;;4.17;;
16262;SDS011;8239;48.594;8.598;2022-08-21T02:54:31;6.10;;;4.10;;
16262;SDS011;8239;48.594;8.598;2022-08-21T02:56:59;5.00;;;4.50;;
16262;SDS011;8239;48.594;8.598;2022-08-21T02:59:26;5.67;;;4.53;;
16262;SDS011;8239;48.594;8.598;2022-08-21T03:01:53;7.93;;;4.53;;
16262;SDS011;8239;48.594;8.598;2022-08-21T03:04:20;6.83;;;3.97;;
16262;SDS011;8239;48.594;8.598;2022-08-21T03:06:49;5.00;;;4.50;;
16262;SDS011;8239;48.594;8.598;2022-08-21T03:09:16;7.13;;;4.20;;
16262;SDS011;8239;48.594;8.598;2022-08-21T03:11:43;5.33;;;4.27;;
16262;SDS011;8239;48.594;8.598;2022-08-21T03:14:10;6.90;;;4.30;;
16262;SDS011;8239;48.594;8.598;2022-08-21T03:16:37;8.03;;;4.50;;
16262;SDS011;8239;48.594;8.598;2022-08-21T03:19:04;4.97;;;4.10;;
16262;SDS011;8239;48.594;8.598;2022-08-21T03:21:31;5.90;;;4.87;;
16262;SDS011;8239;48.594;8.598;2022-08-21T03:23:59;7.73;;;4.70;;
16262;SDS011;8239;48.594;8.598;2022-08-21T03:26:26;6.83;;;4.27;;
16262;SDS011;8239;48.594;8.598;2022-08-21T03:28:54;5.50;;;4.23;;
16262;SDS011;8239;48.594;8.598;2022-08-21T03:31:22;7.67;;;4.30;;
16262;SDS011;8239;48.594;8.598;2022-08-21T03:33:51;8.33;;;4.80;;
16262;SDS011;8239;48.594;8.598;2022-08-21T03:36:20;8.83;;;4.77;;
16262;SDS011;8239;48.594;8.598;2022-08-21T03:38:47;8.27;;;4.60;;
16262;SDS011;8239;48.594;8.598;2022-08-21T03:41:15;6.23;;;4.83;;
16262;SDS011;8239;48.594;8.598;2022-08-21T03:43:42;8.67;;;4.30;;
16262;SDS011;8239;48.594;8.598;2022-08-21T03:46:09;6.57;;;4.93;;
16262;SDS011;8239;48.594;8.598;2022-08-21T03:48:36;9.17;;;4.83;;
16262;SDS011;8239;48.594;8.598;2022-08-21T03:51:04;6.67;;;4.43;;
16262;SDS011;8239;48.594;8.598;2022-08-21T03:53:32;5.73;;;4.13;;
16262;SDS011;8239;48.594;8.598;2022-08-21T03:56:00;7.07;;;4.53;;
16262;SDS011;8239;48.594;8.598;2022-08-21T03:58:28;8.87;;;4.50;;
16262;SDS011;8239;48.594;8.598;2022-08-21T04:00:56;8.67;;;4.80;;
16262;SDS011;8239;48.594;8.598;2022-08-21T04:03:25;7.33;;;4.50;;
16262;SDS011;8239;48.594;8.598;2022-08-21T04:05:53;8.37;;;4.60;;
16262;SDS011;8239;48.594;8.598;2022-08-21T04:08:20;7.70;;;4.97;;
16262;SDS011;8239;48.594;8.598;2022-08-21T04:10:48;6.83;;;4.80;;
16262;SDS011;8239;48.594;8.598;2022-08-21T04:13:18;6.03;;;4.47;;
16262;SDS011;8239;48.594;8.598;2022-08-21T04:15:47;7.17;;;4.50;;
16262;SDS011;8239;48.594;8.598;2022-08-21T04:18:14;7.47;;;4.70;;
16262;SDS011;8239;48.594;8.598;2022-08-21T04:20:41;7.97;;;4.80;;
16262;SDS011;8239;48.594;8.598;2022-08-21T04:23:11;8.53;;;4.83;;
16262;SDS011;8239;48.594;8.598;2022-08-21T04:25:38;10.27;;;5.03;;
16262;SDS011;8239;48.594;8.598;2022-08-21T04:28:05;10.03;;;4.67;;
16262;SDS011;8239;48.594;8.598;2022-08-21T04:30:32;10.43;;;5.03;;
16262;SDS011;8239;48.594;8.598;2022-08-21T04:33:01;7.30;;;4.97;;
16262;SDS011;8239;48.594;8.598;2022-08-21T04:35:29;8.33;;;5.13;;
16262;SDS011;8239;48.594;8.598;2022-08-21T04:37:56;6.90;;;5.10;;
16262;SDS011;8239;48.594;8.598;2022-08-21T04:40:24;7.43;;;5.20;;
16262;SDS011;8239;48.594;8.598;2022-08-21T04:42:54;7.73;;;5.20;;
16262;SDS011;8239;48.594;8.598;2022-08-21T04:45:25;8.67;;;4.90;;
16262;SDS011;8239;48.594;8.598;2022-08-21T04:47:55;8.57;;;5.37;;
16262;SDS011;8239;48.594;8.598;2022-08-21T04:50:25;9.60;;;5.20;;
16262;SDS011;8239;48.594;8.598;2022-08-21T04:52:57;7.13;;;4.70;;
16262;SDS011;8239;48.594;8.598;2022-08-21T04:55:24;6.23;;;4.80;;
16262;SDS011;8239;48.594;8.598;2022-08-21T04:57:53;6.40;;;4.60;;
16262;SDS011;8239;48.594;8.598;2022-08-21T05:00:21;8.03;;;4.90;;
16262;SDS011;8239;48.594;8.598;2022-08-21T05:02:50;7.60;;;4.77;;
16262;SDS011;8239;48.594;8.598;2022-08-21T05:05:21;6.57;;;4.40;;
16262;SDS011;8239;48.594;8.598;2022-08-21T05:07:49;6.07;;;4.40;;
16262;SDS011;8239;48.594;8.598;2022-08-21T05:10:18;6.07;;;4.63;;
16262;SDS011;8239;48.594;8.598;2022-08-21T05:12:45;9.60;;;4.20;;
16262;SDS011;8239;48.594;8.598;2022-08-21T05:15:12;6.27;;;4.40;;
16262;SDS011;8239;48.594;8.598;2022-08-21T05:17:39;8.03;;;4.20;;
16262;SDS011;8239;48.594;8.598;2022-08-21T05:20:07;7.37;;;4.60;;
16262;SDS011;8239;48.594;8.598;2022-08-21T05:22:35;5.33;;;4.23;;
16262;SDS011;8239;48.594;8.598;2022-08-21T05:25:04;6.47;;;4.57;;
16262;SDS011;8239;48.594;8.598;2022-08-21T05:27:33;7.53;;;4.83;;
16262;SDS011;8239;48.594;8.598;2022-08-21T05:30:00;6.67;;;4.77;;
16262;SDS011;8239;48.594;8.598;2022-08-21T05:32:29;6.27;;;4.87;;
16262;SDS011;8239;48.594;8.598;2022-08-21T05:34:56;6.37;;;4.57;;
16262;SDS011;8239;48.594;8.598;2022-08-21T05:37:23;5.97;;;4.30;;
16262;SDS011;8239;48.594;8.598;2022-08-21T05:39:50;5.30;;;4.30;;
16262;SDS011;8239;48.594;8.598;2022-08-21T05:42:19;5.23;;;3.93;;
16262;SDS011;8239;48.594;8.598;2022-08-21T05:44:46;6.80;;;4.50;;
16262;SDS011;8239;48.594;8.598;2022-08-21T05:47:13;5.47;;;4.03;;
16262;SDS011;8239;48.594;8.598;2022-08-21T05:49:40;5.10;;;4.30;;
16262;SDS011;8239;48.594;8.598;2022-08-21T05:52:07;5.17;;;3.80;;
16262;SDS011;8239;48.594;8.598;2022-08-21T05:54:35;5.07;;;3.63;;
16262;SDS011;8239;48.594;8.598;2022-08-21T05:57:03;5.47;;;3.60;;
16262;SDS011;8239;48.594;8.598;2022-08-21T05:59:31;4.87;;;3.73;;
16262;SDS011;8239;48.594;8.598;2022-08-21T06:01:58;5.70;;;3.70;;
16262;SDS011;8239;48.594;8.598;2022-08-21T06:04:25;4.60;;;3.40;;
16262;SDS011;8239;48.594;8.598;2022-08-21T06:06:53;5.67;;;3.90;;
16262;SDS011;8239;48.594;8.598;2022-08-21T06:09:20;5.53;;;3.33;;
16262;SDS011;8239;48.594;8.598;2022-08-21T06:11:47;4.27;;;3.23;;
16262;SDS011;8239;48.594;8.598;2022-08-21T06:14:14;4.77;;;3.40;;
16262;SDS011;8239;48.594;8.598;2022-08-21T06:16:42;4.20;;;3.50;;
16262;SDS011;8239;48.594;8.598;2022-08-21T06:19:09;5.03;;;3.13;;
16262;SDS011;8239;48.594;8.598;2022-08-21T06:21:37;4.67;;;2.90;;
16262;SDS011;8239;48.594;8.598;2022-08-21T06:24:04;4.13;;;2.95;;
16262;SDS011;8239;48.594;8.598;2022-08-21T06:26:32;5.00;;;2.85;;
16262;SDS011;8239;48.594;8.598;2022-08-21T06:28:59;4.05;;;2.88;;
16262;SDS011;8239;48.594;8.598;2022-08-21T06:31:26;5.75;;;2.80;;
16262;SDS011;8239;48.594;8.598;2022-08-21T06:33:55;4.35;;;2.60;;
16262;SDS011;8239;48.594;8.598;2022-08-21T06:36:24;2.80;;;2.53;;
16262;SDS011;8239;48.594;8.598;2022-08-21T06:38:51;2.85;;;2.38;;
16262;SDS011;8239;48.594;8.598;2022-08-21T06:41:18;3.92;;;2.92;;
16262;SDS011;8239;48.594;8.598;2022-08-21T06:43:45;3.08;;;2.60;;
16262;SDS011;8239;48.594;8.598;2022-08-21T06:46:12;3.30;;;2.55;;
16262;SDS011;8239;48.594;8.598;2022-08-21T06:48:39;2.90;;;2.60;;
16262;SDS011;8239;48.594;8.598;2022-08-21T06:51:07;3.08;;;2.53;;
16262;SDS011;8239;48.594;8.598;2022-08-21T06:53:34;2.60;;;2.40;;
16262;SDS011;8239;48.594;8.598;2022-08-21T06:56:01;4.07;;;2.70;;
16262;SDS011;8239;48.594;8.598;2022-08-21T06:58:29;3.95;;;2.53;;
16262;SDS011;8239;48.594;8.598;2022-08-21T07:00:56;2.95;;;2.55;;
16262;SDS011;8239;48.594;8.598;2022-08-21T07:03:24;2.67;;;2.47;;
16262;SDS011;8239;48.594;8.598;2022-08-21T07:05:53;3.28;;;2.85;;
16262;SDS011;8239;48.594;8.598;2022-08-21T07:08:24;3.50;;;2.65;;
16262;SDS011;8239;48.594;8.598;2022-08-21T07:10:52;4.00;;;2.80;;
16262;SDS011;8239;48.594;8.598;2022-08-21T07:13:20;4.38;;;3.03;;
16262;SDS011;8239;48.594;8.598;2022-08-21T07:15:48;4.03;;;2.90;;
16262;SDS011;8239;48.594;8.598;2022-08-21T07:18:15;3.20;;;2.63;;
16262;SDS011;8239;48.594;8.598;2022-08-21T07:20:43;3.15;;;2.70;;
16262;SDS011;8239;48.594;8.598;2022-08-21T07:23:21;2.90;;;2.53;;
16262;SDS011;8239;48.594;8.598;2022-08-21T07:25:52;3.25;;;2.85;;
16262;SDS011;8239;48.594;8.598;2022-08-21T07:28:19;2.85;;;2.65;;
16262;SDS011;8239;48.594;8.598;2022-08-21T07:30:50;4.15;;;3.00;;
16262;SDS011;8239;48.594;8.598;2022-08-21T07:33:17;3.92;;;2.95;;
16262;SDS011;8239;48.594;8.598;2022-08-21T07:35:44;3.20;;;2.78;;
16262;SDS011;8239;48.594;8.598;2022-08-21T07:38:11;3.78;;;2.75;;
16262;SDS011;8239;48.594;8.598;2022-08-21T07:40:40;3.50;;;2.80;;
16262;SDS011;8239;48.594;8.598;2022-08-21T07:43:07;2.97;;;2.63;;
16262;SDS011;8239;48.594;8.598;2022-08-21T07:45:34;4.50;;;3.08;;
16262;SDS011;8239;48.594;8.598;2022-08-21T07:48:01;4.20;;;2.63;;
16262;SDS011;8239;48.594;8.598;2022-08-21T07:50:29;4.63;;;2.97;;
16262;SDS011;8239;48.594;8.598;2022-08-21T07:52:56;4.55;;;2.72;;
16262;SDS011;8239;48.594;8.598;2022-08-21T07:55:23;4.20;;;3.00;;
16262;SDS011;8239;48.594;8.598;2022-08-21T07:57:52;3.65;;;2.70;;
16262;SDS011;8239;48.594;8.598;2022-08-21T08:00:21;3.05;;;2.60;;
16262;SDS011;8239;48.594;8.598;2022-08-21T08:02:50;3.30;;;2.70;;
16262;SDS011;8239;48.594;8.598;2022-08-21T08:05:20;5.50;;;2.80;;
16262;SDS011;8239;48.594;8.598;2022-08-21T08:07:49;4.30;;;2.70;;
16262;SDS011;8239;48.594;8.598;2022-08-21T08:10:16;3.10;;;2.60;;
16262;SDS011;8239;48.594;8.598;2022-08-21T08:12:45;3.65;;;2.58;;
16262;SDS011;8239;48.594;8.598;2022-08-21T08:15:16;3.03;;;2.72;;
16262;SDS011;8239;48.594;8.598;2022-08-21T08:17:44;3.63;;;2.85;;
16262;SDS011;8239;48.594;8.598;2022-08-21T08:20:12;3.10;;;2.80;;
16262;SDS011;8239;48.594;8.598;2022-08-21T08:22:41;4.97;;;2.90;;
16262;SDS011;8239;48.594;8.598;2022-08-21T08:25:08;2.83;;;2.60;;
16262;SDS011;8239;48.594;8.598;2022-08-21T08:27:37;3.20;;;2.83;;
16262;SDS011;8239;48.594;8.598;2022-08-21T08:30:05;3.95;;;2.65;;
16262;SDS011;8239;48.594;8.598;2022-08-21T08:32:52;3.60;;;2.45;;
16262;SDS011;8239;48.594;8.598;2022-08-21T08:35:19;4.20;;;2.67;;
16262;SDS011;8239;48.594;8.598;2022-08-21T08:37:46;2.95;;;2.67;;
16262;SDS011;8239;48.594;8.598;2022-08-21T08:40:14;3.00;;;2.58;;
16262;SDS011;8239;48.594;8.598;2022-08-21T08:42:48;3.22;;;2.33;;
16262;SDS011;8239;48.594;8.598;2022-08-21T08:45:16;2.92;;;2.47;;
16262;SDS011;8239;48.594;8.598;2022-08-21T08:47:55;3.60;;;2.53;;
16262;SDS011;8239;48.594;8.598;2022-08-21T08:50:39;3.05;;;2.75;;
16262;SDS011;8239;48.594;8.598;2022-08-21T08:53:12;2.85;;;2.65;;
16262;SDS011;8239;48.594;8.598;2022-08-21T08:55:44;3.53;;;2.58;;
16262;SDS011;8239;48.594;8.598;2022-08-21T08:58:12;3.47;;;2.60;;
16262;SDS011;8239;48.594;8.598;2022-08-21T09:00:43;2.95;;;2.45;;
16262;SDS011;8239;48.594;8.598;2022-08-21T09:03:13;3.00;;;2.53;;
16262;SDS011;8239;48.594;8.598;2022-08-21T09:05:43;4.35;;;2.50;;
16262;SDS011;8239;48.594;8.598;2022-08-21T09:08:20;3.45;;;2.63;;
16262;SDS011;8239;48.594;8.598;2022-08-21T09:11:04;3.65;;;2.70;;
16262;SDS011;8239;48.594;8.598;2022-08-21T09:13:41;3.63;;;2.55;;
16262;SDS011;8239;48.594;8.598;2022-08-21T09:16:17;4.82;;;2.50;;
16262;SDS011;8239;48.594;8.598;2022-08-21T09:19:00;4.82;;;2.42;;
16262;SDS011;8239;48.594;8.598;2022-08-21T09:21:35;3.10;;;2.40;;
16262;SDS011;8239;48.594;8.598;2022-08-21T09:24:21;3.35;;;2.35;;
16262;SDS011;8239;48.594;8.598;2022-08-21T09:26:57;3.38;;;2.38;;
16262;SDS011;8239;48.594;8.598;2022-08-21T09:29:31;3.20;;;2.50;;
16262;SDS011;8239;48.594;8.598;2022-08-21T09:32:02;3.17;;;2.58;;
16262;SDS011;8239;48.594;8.598;2022-08-21T09:34:37;3.75;;;2.50;;
16262;SDS011;8239;48.594;8.598;2022-08-21T09:37:04;3.17;;;2.47;;
16262;SDS011;8239;48.594;8.598;2022-08-21T09:39:42;4.25;;;2.53;;
16262;SDS011;8239;48.594;8.598;2022-08-21T09:42:10;2.80;;;2.50;;
16262;SDS011;8239;48.594;8.598;2022-08-21T09:44:38;3.38;;;2.50;;
16262;SDS011;8239;48.594;8.598;2022-08-21T09:47:08;4.00;;;2.55;;
16262;SDS011;8239;48.594;8.598;2022-08-21T09:49:39;3.78;;;2.58;;
16262;SDS011;8239;48.594;8.598;2022-08-21T09:52:14;4.07;;;2.60;;
16262;SDS011;8239;48.594;8.598;2022-08-21T09:54:43;2.58;;;2.38;;
16262;SDS011;8239;48.594;8.598;2022-08-21T09:57:14;3.20;;;2.22;;
16262;SDS011;8239;48.594;8.598;2022-08-21T10:00:24;2.40;;;2.17;;
16262;SDS011;8239;48.594;8.598;2022-08-21T10:02:54;3.35;;;2.35;;
16262;SDS011;8239;48.594;8.598;2022-08-21T10:05:34;3.88;;;2.67;;
16262;SDS011;8239;48.594;8.598;2022-08-21T10:08:03;3.95;;;2.22;;
16262;SDS011;8239;48.594;8.598;2022-08-21T10:10:31;2.80;;;2.58;;
16262;SDS011;8239;48.594;8.598;2022-08-21T10:13:03;3.72;;;2.50;;
16262;SDS011;8239;48.594;8.598;2022-08-21T10:15:40;3.15;;;2.45;;
16262;SDS011;8239;48.594;8.598;2022-08-21T10:18:16;4.13;;;2.78;;
16262;SDS011;8239;48.594;8.598;2022-08-21T10:20:51;2.63;;;2.42;;
16262;SDS011;8239;48.594;8.598;2022-08-21T10:23:29;4.07;;;2.63;;
16262;SDS011;8239;48.594;8.598;2022-08-21T10:26:09;5.30;;;2.60;;
16262;SDS011;8239;48.594;8.598;2022-08-21T10:28:46;3.42;;;2.30;;
16262;SDS011;8239;48.594;8.598;2022-08-21T10:31:23;4.38;;;2.22;;
16262;SDS011;8239;48.594;8.598;2022-08-21T10:34:03;3.35;;;2.35;;
16262;SDS011;8239;48.594;8.598;2022-08-21T10:36:42;4.47;;;2.60;;
16262;SDS011;8239;48.594;8.598;2022-08-21T10:39:28;3.33;;;2.53;;
16262;SDS011;8239;48.594;8.598;2022-08-21T10:44:53;4.32;;;2.30;;
16262;SDS011;8239;48.594;8.598;2022-08-21T10:47:30;3.72;;;2.50;;
16262;SDS011;8239;48.594;8.598;2022-08-21T10:50:02;3.83;;;2.40;;
16262;SDS011;8239;48.594;8.598;2022-08-21T10:52:44;3.95;;;2.72;;
16262;SDS011;8239;48.594;8.598;2022-08-21T10:55:21;4.90;;;2.53;;
16262;SDS011;8239;48.594;8.598;2022-08-21T10:57:50;3.35;;;2.47;;
16262;SDS011;8239;48.594;8.598;2022-08-21T11:00:21;2.83;;;2.30;;
16262;SDS011;8239;48.594;8.598;2022-08-21T11:02:52;3.25;;;2.33;;
16262;SDS011;8239;48.594;8.598;2022-08-21T11:05:25;2.95;;;2.25;;
16262;SDS011;8239;48.594;8.598;2022-08-21T11:08:00;2.90;;;2.35;;
16262;SDS011;8239;48.594;8.598;2022-08-21T11:10:31;4.32;;;2.33;;
16262;SDS011;8239;48.594;8.598;2022-08-21T11:13:04;2.22;;;2.00;;
16262;SDS011;8239;48.594;8.598;2022-08-21T11:15:39;4.07;;;2.33;;
16262;SDS011;8239;48.594;8.598;2022-08-21T11:18:17;2.42;;;2.03;;
16262;SDS011;8239;48.594;8.598;2022-08-21T11:20:51;2.97;;;2.15;;
16262;SDS011;8239;48.594;8.598;2022-08-21T11:23:31;2.42;;;2.00;;
16262;SDS011;8239;48.594;8.598;2022-08-21T11:26:05;2.92;;;2.38;;
16262;SDS011;8239;48.594;8.598;2022-08-21T11:28:38;2.90;;;1.98;;
16262;SDS011;8239;48.594;8.598;2022-08-21T11:31:13;2.13;;;1.95;;
16262;SDS011;8239;48.594;8.598;2022-08-21T11:33:58;2.80;;;1.98;;
16262;SDS011;8239;48.594;8.598;2022-08-21T11:36:36;2.30;;;2.10;;
16262;SDS011;8239;48.594;8.598;2022-08-21T11:39:12;2.15;;;1.95;;
16262;SDS011;8239;48.594;8.598;2022-08-21T11:41:47;3.63;;;2.03;;
16262;SDS011;8239;48.594;8.598;2022-08-21T11:44:24;2.50;;;2.20;;
16262;SDS011;8239;48.594;8.598;2022-08-21T11:47:03;2.80;;;2.20;;
16262;SDS011;8239;48.594;8.598;2022-08-21T11:49:47;2.45;;;1.95;;
16262;SDS011;8239;48.594;8.598;2022-08-21T11:52:31;4.40;;;2.20;;
16262;SDS011;8239;48.594;8.598;2022-08-21T11:55:04;2.67;;;2.20;;
16262;SDS011;8239;48.594;8.598;2022-08-21T11:57:36;2.65;;;2.10;;
16262;SDS011;8239;48.594;8.598;2022-08-21T12:00:13;2.22;;;1.95;;
16262;SDS011;8239;48.594;8.598;2022-08-21T12:02:48;2.45;;;2.00;;
16262;SDS011;8239;48.594;8.598;2022-08-21T12:05:25;2.15;;;1.92;;
16262;SDS011;8239;48.594;8.598;2022-08-21T12:08:00;2.65;;;2.20;;
16262;SDS011;8239;48.594;8.598;2022-08-21T12:10:33;2.75;;;2.10;;
16262;SDS011;8239;48.594;8.598;2022-08-21T12:13:07;4.05;;;2.40;;
16262;SDS011;8239;48.594;8.598;2022-08-21T12:15:37;3.05;;;2.33;;
16262;SDS011;8239;48.594;8.598;2022-08-21T12:18:05;2.00;;;1.90;;
16262;SDS011;8239;48.594;8.598;2022-08-21T12:20:59;3.22;;;2.10;;
16262;SDS011;8239;48.594;8.598;2022-08-21T12:23:30;2.63;;;2.20;;
16262;SDS011;8239;48.594;8.598;2022-08-21T12:26:02;2.63;;;2.10;;
16262;SDS011;8239;48.594;8.598;2022-08-21T12:28:39;2.50;;;2.30;;
16262;SDS011;8239;48.594;8.598;2022-08-21T12:31:16;2.50;;;2.22;;
16262;SDS011;8239;48.594;8.598;2022-08-21T12:33:47;2.28;;;2.05;;
16262;SDS011;8239;48.594;8.598;2022-08-21T12:36:21;3.28;;;2.33;;
16262;SDS011;8239;48.594;8.598;2022-08-21T12:38:54;4.00;;;2.22;;
16262;SDS011;8239;48.594;8.598;2022-08-21T12:41:26;3.10;;;2.10;;
16262;SDS011;8239;48.594;8.598;2022-08-21T12:43:57;1.95;;;1.85;;
16262;SDS011;8239;48.594;8.598;2022-08-21T12:46:30;2.17;;;1.98;;
16262;SDS011;8239;48.594;8.598;2022-08-21T12:49:03;3.08;;;2.10;;
16262;SDS011;8239;48.594;8.598;2022-08-21T12:51:48;3.47;;;2.13;;
16262;SDS011;8239;48.594;8.598;2022-08-21T12:54:24;3.03;;;2.17;;
16262;SDS011;8239;48.594;8.598;2022-08-21T12:56:58;2.78;;;2.33;;
16262;SDS011;8239;48.594;8.598;2022-08-21T12:59:26;2.22;;;1.98;;
16262;SDS011;8239;48.594;8.598;2022-08-21T13:01:54;2.50;;;2.30;;
16262;SDS011;8239;48.594;8.598;2022-08-21T13:04:22;2.58;;;2.00;;
16262;SDS011;8239;48.594;8.598;2022-08-21T13:06:53;1.90;;;1.80;;
16262;SDS011;8239;48.594;8.598;2022-08-21T13:09:26;2.20;;;1.98;;
16262;SDS011;8239;48.594;8.598;2022-08-21T13:11:55;2.50;;;2.28;;
16262;SDS011;8239;48.594;8.598;2022-08-21T13:14:28;2.55;;;2.35;;
16262;SDS011;8239;48.594;8.598;2022-08-21T13:16:58;3.22;;;2.22;;
16262;SDS011;8239;48.594;8.598;2022-08-21T13:19:29;2.67;;;2.20;;
16262;SDS011;8239;48.594;8.598;2022-08-21T13:21:57;3.47;;;2.38;;
16262;SDS011;8239;48.594;8.598;2022-08-21T13:24:25;2.55;;;1.90;;
16262;SDS011;8239;48.594;8.598;2022-08-21T13:26:54;2.47;;;2.08;;
16262;SDS011;8239;48.594;8.598;2022-08-21T13:29:27;3.53;;;2.42;;
16262;SDS011;8239;48.594;8.598;2022-08-21T13:31:56;3.75;;;2.20;;
16262;SDS011;8239;48.594;8.598;2022-08-21T13:34:25;2.33;;;2.10;;
16262;SDS011;8239;48.594;8.598;2022-08-21T13:37:00;2.95;;;2.10;;
16262;SDS011;8239;48.594;8.598;2022-08-21T13:39:29;3.20;;;2.30;;
16262;SDS011;8239;48.594;8.598;2022-08-21T13:41:58;2.17;;;2.00;;
16262;SDS011;8239;48.594;8.598;2022-08-21T13:44:34;2.85;;;2.13;;
16262;SDS011;8239;48.594;8.598;2022-08-21T13:47:02;2.78;;;2.10;;
16262;SDS011;8239;48.594;8.598;2022-08-21T13:49:32;2.13;;;1.92;;
16262;SDS011;8239;48.594;8.598;2022-08-21T13:52:01;2.17;;;1.98;;
16262;SDS011;8239;48.594;8.598;2022-08-21T13:54:33;2.20;;;2.00;;
16262;SDS011;8239;48.594;8.598;2022-08-21T13:57:01;2.55;;;2.35;;
16262;SDS011;8239;48.594;8.598;2022-08-21T13:59:30;2.70;;;2.08;;
16262;SDS011;8239;48.594;8.598;2022-08-21T14:02:01;2.60;;;2.17;;
16262;SDS011;8239;48.594;8.598;2022-08-21T14:04:36;4.18;;;2.50;;
16262;SDS011;8239;48.594;8.598;2022-08-21T14:07:14;2.42;;;2.22;;
16262;SDS011;8239;48.594;8.598;2022-08-21T14:09:43;2.28;;;2.08;;
16262;SDS011;8239;48.594;8.598;2022-08-21T14:12:13;2.17;;;1.98;;
16262;SDS011;8239;48.594;8.598;2022-08-21T14:14:43;2.75;;;1.85;;
16262;SDS011;8239;48.594;8.598;2022-08-21T14:17:12;2.22;;;2.03;;
16262;SDS011;8239;48.594;8.598;2022-08-21T14:19:44;2.67;;;2.03;;
16262;SDS011;8239;48.594;8.598;2022-08-21T14:25:07;2.40;;;2.20;;
16262;SDS011;8239;48.594;8.598;2022-08-21T14:27:40;3.53;;;2.42;;
16262;SDS011;8239;48.594;8.598;2022-08-21T14:30:12;5.03;;;2.22;;
16262;SDS011;8239;48.594;8.598;2022-08-21T14:32:44;3.38;;;2.30;;
16262;SDS011;8239;48.594;8.598;2022-08-21T14:35:12;2.70;;;2.38;;
16262;SDS011;8239;48.594;8.598;2022-08-21T14:37:42;2.47;;;2.28;;
16262;SDS011;8239;48.594;8.598;2022-08-21T14:40:11;3.22;;;2.35;;
16262;SDS011;8239;48.594;8.598;2022-08-21T14:42:39;2.95;;;2.10;;
16262;SDS011;8239;48.594;8.598;2022-08-21T14:45:08;2.63;;;2.20;;
16262;SDS011;8239;48.594;8.598;2022-08-21T14:47:40;2.72;;;2.20;;
16262;SDS011;8239;48.594;8.598;2022-08-21T14:50:07;2.40;;;2.10;;
16262;SDS011;8239;48.594;8.598;2022-08-21T14:52:36;2.47;;;2.28;;
16262;SDS011;8239;48.594;8.598;2022-08-21T14:55:04;3.20;;;2.30;;
16262;SDS011;8239;48.594;8.598;2022-08-21T14:57:33;2.58;;;2.30;;
16262;SDS011;8239;48.594;8.598;2022-08-21T15:00:00;2.60;;;2.10;;
16262;SDS011;8239;48.594;8.598;2022-08-21T15:02:30;3.33;;;2.50;;
16262;SDS011;8239;48.594;8.598;2022-08-21T15:04:58;3.65;;;2.53;;
16262;SDS011;8239;48.594;8.598;2022-08-21T15:07:25;3.05;;;2.50;;
16262;SDS011;8239;48.594;8.598;2022-08-21T15:09:52;3.80;;;2.33;;
16262;SDS011;8239;48.594;8.598;2022-08-21T15:12:19;3.33;;;2.45;;
16262;SDS011;8239;48.594;8.598;2022-08-21T15:14:46;3.53;;;2.33;;
16262;SDS011;8239;48.594;8.598;2022-08-21T15:17:13;3.60;;;2.55;;
16262;SDS011;8239;48.594;8.598;2022-08-21T15:19:41;3.45;;;2.53;;
16262;SDS011;8239;48.594;8.598;2022-08-21T15:22:08;3.58;;;2.75;;
16262;SDS011;8239;48.594;8.598;2022-08-21T15:24:35;3.55;;;2.75;;